createdAt,value
2023-11-05T00:00:00.600Z,85
2023-11-05T00:15:00.584Z,85
2023-11-05T00:30:00.848Z,85
2023-11-05T00:45:00.660Z,85
2023-11-05T01:00:00.590Z,85
2023-11-05T01:15:00.589Z,85
2023-11-05T01:30:00.604Z,85
2023-11-05T01:45:00.588Z,85
2023-11-05T02:00:00.615Z,85
2023-11-05T02:15:00.573Z,85
2023-11-05T02:30:00.612Z,85
2023-11-05T02:45:00.597Z,85
2023-11-05T03:00:00.696Z,85
2023-11-05T03:15:00.762Z,85
2023-11-05T03:30:00.608Z,85
2023-11-05T03:45:00.941Z,86
2023-11-05T04:00:00.818Z,86
2023-11-05T04:15:00.608Z,86
2023-11-05T04:30:00.665Z,85
2023-11-05T04:45:00.598Z,86
2023-11-05T05:00:00.943Z,86
2023-11-05T05:15:00.627Z,86
2023-11-05T05:30:00.720Z,86
2023-11-05T05:45:00.693Z,86
2023-11-05T06:00:00.627Z,86
2023-11-05T06:15:11.653Z,86
2023-11-05T06:30:00.608Z,86
2023-11-05T06:45:00.686Z,86
2023-11-05T07:00:00.685Z,86
2023-11-05T07:15:00.593Z,86
2023-11-05T07:30:00.618Z,86
2023-11-05T07:45:00.726Z,86
2023-11-05T08:00:00.569Z,86
2023-11-05T08:15:00.658Z,86
2023-11-05T08:30:00.730Z,86
2023-11-05T08:45:00.593Z,86
2023-11-05T09:00:00.689Z,86
2023-11-05T09:15:00.714Z,86
2023-11-05T09:30:00.877Z,86
2023-11-05T09:45:00.598Z,86
2023-11-05T10:00:00.668Z,86
2023-11-05T10:15:00.652Z,86
2023-11-05T10:30:00.626Z,86
2023-11-05T10:45:00.618Z,85
2023-11-05T11:00:00.642Z,85
2023-11-05T11:15:00.645Z,84
2023-11-05T11:30:00.653Z,84
2023-11-05T11:45:00.609Z,82
2023-11-05T12:00:00.595Z,82
2023-11-05T12:15:00.671Z,81
2023-11-05T12:30:00.621Z,80
2023-11-05T12:45:00.581Z,80
2023-11-05T13:00:00.618Z,79
2023-11-05T13:15:00.941Z,79
2023-11-05T13:30:00.647Z,79
2023-11-05T13:45:00.608Z,80
2023-11-05T14:00:01.160Z,80
2023-11-05T14:15:00.593Z,80
2023-11-05T14:30:00.668Z,80
2023-11-05T14:45:11.694Z,80
2023-11-05T15:00:00.591Z,81
2023-11-05T15:15:00.610Z,81
2023-11-05T15:30:00.584Z,81
2023-11-05T15:45:00.701Z,81
2023-11-05T16:00:00.609Z,81
2023-11-05T16:15:00.747Z,82
2023-11-05T16:30:00.775Z,82
2023-11-05T16:45:00.604Z,82
2023-11-05T17:00:00.662Z,82
2023-11-05T17:15:00.607Z,82
2023-11-05T17:30:00.610Z,83
2023-11-05T17:45:00.608Z,83
2023-11-05T18:00:00.620Z,83
2023-11-05T18:15:01.487Z,83
2023-11-05T18:30:00.606Z,83
2023-11-05T18:45:00.705Z,83
2023-11-05T19:00:00.595Z,84
2023-11-05T19:15:00.620Z,84
2023-11-05T19:30:00.700Z,83
2023-11-05T19:45:00.632Z,84
2023-11-05T20:00:00.653Z,84
2023-11-05T20:15:00.640Z,84
2023-11-05T20:30:00.608Z,84
2023-11-05T20:45:00.663Z,84
2023-11-05T21:00:00.597Z,84
2023-11-05T21:15:00.630Z,84
2023-11-05T21:30:00.632Z,84
2023-11-05T21:45:00.630Z,85
2023-11-05T22:00:00.718Z,85
2023-11-05T22:15:00.608Z,85
2023-11-05T22:30:00.627Z,85
2023-11-05T22:45:00.616Z,86
2023-11-05T23:00:00.606Z,86
2023-11-05T23:15:00.849Z,86
2023-11-05T23:30:00.642Z,86
2023-11-05T23:45:00.637Z,86
